Time;durP1;ratioP1;P1;durP2;ratioP2;P2;SDS_P1;SDS_P2;PMS_P1;PMS_P2;Temp;Humidity;BMP_temperature;BMP_pressure;BME280_temperature;BME280_humidity;BME280_pressure;Samples;Min_cycle;Max_cycle;Signal;HPM_P1;HPM_P2
2022/03/17 00:00:08;;;;;;;43.00;25.70;;;;;;;;;;5114307;28;20428;-57
2022/03/17 00:02:35;;;;;;;42.73;24.73;;;;;;;;;;5114043;28;20929;-60
2022/03/17 00:05:04;;;;;;;49.47;27.10;;;;;;;;;;5114078;28;20408;-51
2022/03/17 00:07:30;;;;;;;45.63;26.40;;;;;;;;;;5095568;28;20525;-57
2022/03/17 00:09:57;;;;;;;49.47;27.60;;;;;;;;;;5114044;28;20875;-57
2022/03/17 00:12:23;;;;;;;49.17;27.10;;;;;;;;;;5095540;28;20431;-54
2022/03/17 00:14:51;;;;;;;46.07;27.00;;;;;;;;;;5113877;28;20512;-52
2022/03/17 00:17:17;;;;;;;50.63;27.20;;;;;;;;;;5113802;28;20444;-56
2022/03/17 00:19:43;;;;;;;46.90;25.77;;;;;;;;;;5075662;28;1095415;-54
2022/03/17 00:22:10;;;;;;;45.10;26.07;;;;;;;;;;5096705;28;20293;-57
2022/03/17 00:24:37;;;;;;;50.60;27.83;;;;;;;;;;5114817;28;20442;-56
2022/03/17 00:27:05;;;;;;;47.37;25.60;;;;;;;;;;5114523;28;20452;-60
2022/03/17 00:29:31;;;;;;;48.17;27.00;;;;;;;;;;5114691;28;20928;-61
2022/03/17 00:31:57;;;;;;;46.53;26.40;;;;;;;;;;5114495;28;20799;-54
2022/03/17 00:34:23;;;;;;;46.97;25.90;;;;;;;;;;5114495;28;20409;-54
2022/03/17 00:36:50;;;;;;;50.73;27.57;;;;;;;;;;5114406;28;20478;-54
2022/03/17 00:39:16;;;;;;;45.57;26.50;;;;;;;;;;5114517;28;20597;-54
2022/03/17 00:41:43;;;;;;;52.10;26.20;;;;;;;;;;5114377;28;20412;-55
2022/03/17 00:44:09;;;;;;;48.93;26.23;;;;;;;;;;5096182;28;20425;-56
2022/03/17 00:46:36;;;;;;;44.50;26.40;;;;;;;;;;5114379;28;20412;-58
2022/03/17 00:49:02;;;;;;;44.53;26.43;;;;;;;;;;5113328;28;20466;-57
2022/03/17 00:51:28;;;;;;;46.10;26.60;;;;;;;;;;5095900;28;20495;-52
2022/03/17 00:53:54;;;;;;;50.50;26.40;;;;;;;;;;5114030;28;20508;-60
2022/03/17 00:56:20;;;;;;;49.37;28.40;;;;;;;;;;5114092;28;20405;-60
2022/03/17 00:58:47;;;;;;;52.60;28.00;;;;;;;;;;5095794;28;20413;-61
2022/03/17 01:01:13;;;;;;;45.20;26.77;;;;;;;;;;5113918;28;20401;-58
2022/03/17 01:03:40;;;;;;;46.13;26.47;;;;;;;;;;5114099;28;20429;-57
2022/03/17 01:06:06;;;;;;;41.93;25.03;;;;;;;;;;5114116;28;20920;-53
2022/03/17 01:08:32;;;;;;;48.60;27.03;;;;;;;;;;5113724;28;20465;-59
2022/03/17 01:11:02;;;;;;;51.73;28.00;;;;;;;;;;5113797;28;20488;-58
2022/03/17 01:13:28;;;;;;;46.00;27.10;;;;;;;;;;5113647;28;20424;-58
2022/03/17 01:15:54;;;;;;;47.63;26.90;;;;;;;;;;5113735;28;20765;-59
2022/03/17 01:18:21;;;;;;;52.00;27.60;;;;;;;;;;5113597;28;20448;-56
2022/03/17 01:20:47;;;;;;;47.30;26.70;;;;;;;;;;5113599;28;20462;-51
2022/03/17 01:23:13;;;;;;;49.27;26.23;;;;;;;;;;5113669;28;20890;-52
2022/03/17 01:25:42;;;;;;;46.23;27.87;;;;;;;;;;5113723;28;20472;-54
2022/03/17 01:28:09;;;;;;;47.53;26.40;;;;;;;;;;5113611;28;20987;-52
2022/03/17 01:30:35;;;;;;;45.43;26.60;;;;;;;;;;5113391;28;20405;-56
2022/03/17 01:33:01;;;;;;;45.90;26.60;;;;;;;;;;5113468;28;20908;-55
2022/03/17 01:35:27;;;;;;;50.17;27.00;;;;;;;;;;5113320;28;20416;-54
2022/03/17 01:37:53;;;;;;;48.73;27.37;;;;;;;;;;5113336;28;20397;-55
2022/03/17 01:40:19;;;;;;;48.30;27.30;;;;;;;;;;5113348;28;20405;-59
2022/03/17 01:42:45;;;;;;;51.63;27.17;;;;;;;;;;5094895;28;20456;-56
2022/03/17 01:45:12;;;;;;;47.47;27.57;;;;;;;;;;5113195;28;20409;-58
2022/03/17 01:47:38;;;;;;;48.90;28.00;;;;;;;;;;5113222;28;21032;-56
2022/03/17 01:50:06;;;;;;;52.93;28.90;;;;;;;;;;5112926;28;20409;-54
2022/03/17 01:52:32;;;;;;;48.27;27.13;;;;;;;;;;5113123;28;20441;-53
2022/03/17 01:54:58;;;;;;;56.00;28.90;;;;;;;;;;5094884;28;20413;-54
2022/03/17 01:57:25;;;;;;;49.20;27.90;;;;;;;;;;5113262;28;20751;-53
2022/03/17 01:59:51;;;;;;;49.50;27.27;;;;;;;;;;5113207;28;20503;-53
2022/03/17 02:02:18;;;;;;;47.63;27.23;;;;;;;;;;5094861;28;20593;-50
2022/03/17 02:04:47;;;;;;;50.10;27.43;;;;;;;;;;5113152;28;20469;-54
2022/03/17 02:07:14;;;;;;;52.50;28.80;;;;;;;;;;5112971;28;20520;-51
2022/03/17 02:09:40;;;;;;;51.30;27.90;;;;;;;;;;5113429;28;20424;-52
2022/03/17 02:14:55;;;;;;;47.43;27.20;;;;;;;;;;5113354;28;20962;-52
2022/03/17 02:17:22;;;;;;;51.47;27.80;;;;;;;;;;5112996;28;20492;-52
2022/03/17 02:19:48;;;;;;;50.10;28.40;;;;;;;;;;5112660;28;20809;-51
2022/03/17 02:22:18;;;;;;;52.97;28.43;;;;;;;;;;5094740;28;20775;-52
2022/03/17 02:27:36;;;;;;;48.80;28.03;;;;;;;;;;5112737;28;20471;-54
2022/03/17 02:30:03;;;;;;;54.60;29.90;;;;;;;;;;5112821;28;20404;-55
2022/03/17 02:32:29;;;;;;;47.83;27.17;;;;;;;;;;5094504;28;20421;-53
2022/03/17 02:34:55;;;;;;;50.30;28.53;;;;;;;;;;5112766;28;20923;-55
2022/03/17 02:37:24;;;;;;;50.57;28.90;;;;;;;;;;5112662;28;20408;-57
2022/03/17 02:39:50;;;;;;;54.07;30.10;;;;;;;;;;5112631;28;20458;-54
2022/03/17 02:42:16;;;;;;;52.17;29.60;;;;;;;;;;5094721;28;20417;-58
2022/03/17 02:44:42;;;;;;;49.40;28.70;;;;;;;;;;5112523;28;20897;-53
2022/03/17 02:47:08;;;;;;;56.27;30.57;;;;;;;;;;5112700;28;20452;-53
2022/03/17 02:49:34;;;;;;;56.10;30.10;;;;;;;;;;5112585;28;20496;-54
2022/03/17 02:52:01;;;;;;;59.57;30.30;;;;;;;;;;5112580;28;20393;-55
2022/03/17 02:54:30;;;;;;;58.23;30.37;;;;;;;;;;5112576;28;20416;-54
2022/03/17 02:56:56;;;;;;;59.43;31.40;;;;;;;;;;5112499;28;20409;-52
2022/03/17 02:59:22;;;;;;;53.70;30.43;;;;;;;;;;5112587;28;20538;-54
2022/03/17 03:01:48;;;;;;;57.90;30.67;;;;;;;;;;5094244;28;20451;-54
2022/03/17 03:04:16;;;;;;;54.53;30.77;;;;;;;;;;5112373;28;20825;-58
2022/03/17 03:06:45;;;;;;;66.87;31.13;;;;;;;;;;5112277;28;20405;-58
2022/03/17 03:09:12;;;;;;;54.73;30.20;;;;;;;;;;5112402;28;20412;-59
2022/03/17 03:11:38;;;;;;;54.70;31.07;;;;;;;;;;5114540;28;20407;-62
2022/03/17 03:14:07;;;;;;;56.07;31.70;;;;;;;;;;5116291;28;20757;-59
2022/03/17 03:16:33;;;;;;;58.57;31.87;;;;;;;;;;5116209;28;20936;-61
2022/03/17 03:18:59;;;;;;;58.87;31.20;;;;;;;;;;5115889;28;20451;-60
2022/03/17 03:21:25;;;;;;;57.70;30.67;;;;;;;;;;5116057;28;20479;-62
2022/03/17 03:23:54;;;;;;;59.00;31.37;;;;;;;;;;5097814;28;20420;-60
2022/03/17 03:26:20;;;;;;;58.20;31.47;;;;;;;;;;5115869;28;20946;-60
2022/03/17 03:28:46;;;;;;;57.07;30.50;;;;;;;;;;5115912;28;20519;-62
2022/03/17 03:31:12;;;;;;;57.53;31.23;;;;;;;;;;5115791;28;20405;-60
2022/03/17 03:33:38;;;;;;;60.07;31.13;;;;;;;;;;5115906;28;20485;-60
2022/03/17 03:38:52;;;;;;;62.50;32.70;;;;;;;;;;5115649;28;20401;-53
2022/03/17 03:41:18;;;;;;;54.03;30.53;;;;;;;;;;5115557;28;20492;-59
2022/03/17 03:43:44;;;;;;;56.53;31.00;;;;;;;;;;5115525;28;20401;-61
2022/03/17 03:46:14;;;;;;;59.20;32.27;;;;;;;;;;5115637;28;20405;-59
2022/03/17 03:48:40;;;;;;;61.50;31.77;;;;;;;;;;5115525;28;20472;-57
2022/03/17 03:51:06;;;;;;;60.10;31.90;;;;;;;;;;5097431;28;20408;-61
2022/03/17 03:56:17;;;;;;;61.50;32.60;;;;;;;;;;5115329;28;20848;-60
2022/03/17 03:58:43;;;;;;;60.77;32.50;;;;;;;;;;5115210;28;20397;-61
2022/03/17 04:01:09;;;;;;;56.80;31.47;;;;;;;;;;5115320;28;20443;-60
2022/03/17 04:03:35;;;;;;;56.23;30.90;;;;;;;;;;5115172;28;20464;-59
2022/03/17 04:06:04;;;;;;;62.70;31.83;;;;;;;;;;5115109;28;20397;-60
2022/03/17 04:08:30;;;;;;;56.23;30.93;;;;;;;;;;5114952;28;20461;-60
2022/03/17 04:10:56;;;;;;;60.80;32.13;;;;;;;;;;5096584;28;20423;-58
2022/03/17 04:13:22;;;;;;;60.80;32.17;;;;;;;;;;5114909;28;20897;-56
2022/03/17 04:15:48;;;;;;;59.37;32.20;;;;;;;;;;5114937;28;20400;-61
2022/03/17 04:18:14;;;;;;;58.27;31.60;;;;;;;;;;5114716;28;20444;-54
2022/03/17 04:20:40;;;;;;;60.37;32.07;;;;;;;;;;5114887;28;20886;-57
2022/03/17 04:23:06;;;;;;;55.50;30.90;;;;;;;;;;5113760;28;20412;-54
2022/03/17 04:25:32;;;;;;;62.03;32.37;;;;;;;;;;5114601;28;20905;-54
2022/03/17 04:27:58;;;;;;;57.13;31.07;;;;;;;;;;5114533;28;20460;-53
2022/03/17 04:30:24;;;;;;;58.60;32.03;;;;;;;;;;5114617;28;20823;-54
2022/03/17 04:32:53;;;;;;;59.10;31.93;;;;;;;;;;5114607;28;20404;-59
2022/03/17 04:35:19;;;;;;;56.87;31.30;;;;;;;;;;5114544;28;20393;-58
2022/03/17 04:37:45;;;;;;;59.67;32.17;;;;;;;;;;5096117;28;20424;-61
2022/03/17 04:40:11;;;;;;;60.57;33.07;;;;;;;;;;5114445;28;20412;-59
2022/03/17 04:42:37;;;;;;;59.10;32.73;;;;;;;;;;5114458;28;20420;-58
2022/03/17 04:45:04;;;;;;;61.07;32.30;;;;;;;;;;5114179;28;20796;-59
2022/03/17 04:47:30;;;;;;;61.50;32.30;;;;;;;;;;5114222;28;20452;-61
2022/03/17 04:49:56;;;;;;;61.70;32.87;;;;;;;;;;5114100;28;20416;-59
2022/03/17 04:55:07;;;;;;;57.90;32.07;;;;;;;;;;5114516;28;20765;-62
2022/03/17 04:57:33;;;;;;;59.20;32.43;;;;;;;;;;5114032;28;20929;-59
2022/03/17 04:59:59;;;;;;;63.47;32.83;;;;;;;;;;5113956;28;20442;-62
2022/03/17 05:02:25;;;;;;;62.07;33.50;;;;;;;;;;5113947;28;20416;-58
2022/03/17 05:04:52;;;;;;;60.40;32.30;;;;;;;;;;5114052;28;20413;-58
2022/03/17 05:07:19;;;;;;;59.37;31.70;;;;;;;;;;5113888;28;20500;-61
2022/03/17 05:09:45;;;;;;;61.17;32.50;;;;;;;;;;5111542;28;20488;-60
2022/03/17 05:12:11;;;;;;;69.50;33.23;;;;;;;;;;5113133;28;20958;-52
2022/03/17 05:14:38;;;;;;;62.90;31.97;;;;;;;;;;5113077;28;20911;-54
2022/03/17 05:17:04;;;;;;;58.27;31.30;;;;;;;;;;5094842;28;20769;-53
2022/03/17 05:19:30;;;;;;;64.33;33.63;;;;;;;;;;5112529;28;20464;-53
2022/03/17 05:21:56;;;;;;;61.17;34.00;;;;;;;;;;5112786;28;20423;-54
2022/03/17 05:24:22;;;;;;;60.00;32.70;;;;;;;;;;5112721;28;20774;-52
2022/03/17 05:26:48;;;;;;;62.90;33.70;;;;;;;;;;5094817;28;20739;-55
2022/03/17 05:29:14;;;;;;;66.20;34.57;;;;;;;;;;5112543;28;20965;-53
2022/03/17 05:31:40;;;;;;;63.73;33.60;;;;;;;;;;5112645;28;20493;-53
2022/03/17 05:34:06;;;;;;;63.83;32.80;;;;;;;;;;5112338;28;20415;-54
2022/03/17 05:36:32;;;;;;;58.13;31.90;;;;;;;;;;5112593;28;20455;-52
2022/03/17 05:38:58;;;;;;;74.90;33.83;;;;;;;;;;5094185;28;20804;-53
2022/03/17 05:41:24;;;;;;;65.50;33.80;;;;;;;;;;5112487;28;20413;-53
2022/03/17 05:43:50;;;;;;;59.83;32.83;;;;;;;;;;5112366;28;20416;-54
2022/03/17 05:46:16;;;;;;;62.13;32.90;;;;;;;;;;5094125;28;20789;-52
2022/03/17 05:48:42;;;;;;;58.60;32.33;;;;;;;;;;5112249;28;20468;-53
2022/03/17 05:51:08;;;;;;;62.77;33.83;;;;;;;;;;5112225;28;20408;-54
2022/03/17 05:53:34;;;;;;;60.67;33.70;;;;;;;;;;5112181;28;20497;-54
2022/03/17 05:56:00;;;;;;;61.80;33.03;;;;;;;;;;5093849;28;20496;-54
2022/03/17 05:58:26;;;;;;;61.67;35.00;;;;;;;;;;5112171;28;20408;-63
2022/03/17 06:00:53;;;;;;;61.20;33.40;;;;;;;;;;5112180;28;20409;-68
2022/03/17 06:03:22;;;;;;;63.03;34.30;;;;;;;;;;5093917;28;20796;-66
2022/03/17 06:05:48;;;;;;;59.90;32.47;;;;;;;;;;5112941;28;20409;-59
2022/03/17 06:08:14;;;;;;;61.87;32.80;;;;;;;;;;5112771;28;20554;-52
2022/03/17 06:10:40;;;;;;;65.93;34.50;;;;;;;;;;5112922;28;20766;-53
2022/03/17 06:13:07;;;;;;;59.40;32.70;;;;;;;;;;5112976;28;20405;-55
2022/03/17 06:15:34;;;;;;;58.30;32.93;;;;;;;;;;5112918;28;20409;-54
2022/03/17 06:18:02;;;;;;;69.87;33.90;;;;;;;;;;5112456;28;20412;-54
2022/03/17 06:20:30;;;;;;;59.63;34.00;;;;;;;;;;5112716;28;20901;-51
2022/03/17 06:22:57;;;;;;;64.90;34.37;;;;;;;;;;5112661;28;20463;-55
2022/03/17 06:25:27;;;;;;;61.07;33.30;;;;;;;;;;5112868;28;20404;-51
2022/03/17 06:27:53;;;;;;;58.87;33.13;;;;;;;;;;5112648;28;20818;-56
2022/03/17 06:30:20;;;;;;;60.20;33.47;;;;;;;;;;5112962;28;20825;-57
2022/03/17 06:32:46;;;;;;;66.93;34.17;;;;;;;;;;5094442;28;20781;-58
2022/03/17 06:35:17;;;;;;;66.53;32.83;;;;;;;;;;5112960;28;20408;-54
2022/03/17 06:37:44;;;;;;;57.87;33.30;;;;;;;;;;5112711;28;20404;-54
2022/03/17 06:40:11;;;;;;;61.60;33.40;;;;;;;;;;5094552;28;20424;-55
2022/03/17 06:42:40;;;;;;;62.90;34.13;;;;;;;;;;5112568;28;20451;-53
2022/03/17 06:45:06;;;;;;;61.50;33.50;;;;;;;;;;5112550;28;20401;-55
2022/03/17 06:47:32;;;;;;;59.70;34.27;;;;;;;;;;5116289;28;20464;-55
2022/03/17 06:49:58;;;;;;;60.63;34.20;;;;;;;;;;5116717;28;20412;-54
2022/03/17 06:52:24;;;;;;;54.00;32.77;;;;;;;;;;5097997;28;20417;-55
2022/03/17 06:54:51;;;;;;;56.77;33.53;;;;;;;;;;5098205;28;20448;-54
2022/03/17 06:57:19;;;;;;;56.37;32.53;;;;;;;;;;5116388;28;21030;-54
2022/03/17 06:59:46;;;;;;;57.20;32.50;;;;;;;;;;5098163;28;21208;-53
2022/03/17 07:02:12;;;;;;;58.90;33.83;;;;;;;;;;5116354;28;20424;-58
2022/03/17 07:04:38;;;;;;;55.30;31.67;;;;;;;;;;5116438;28;20482;-53
2022/03/17 07:07:04;;;;;;;65.23;34.30;;;;;;;;;;5116247;28;20456;-54
2022/03/17 07:09:30;;;;;;;57.90;33.00;;;;;;;;;;5116092;28;20428;-54
2022/03/17 07:12:02;;;;;;;58.33;32.50;;;;;;;;;;5116246;28;20499;-53
2022/03/17 07:14:28;;;;;;;60.93;34.03;;;;;;;;;;5116102;28;20417;-53
2022/03/17 07:16:54;;;;;;;60.47;34.40;;;;;;;;;;5116223;28;20485;-53
2022/03/17 07:19:23;;;;;;;59.50;32.90;;;;;;;;;;5115969;28;20468;-59
2022/03/17 07:21:49;;;;;;;55.73;32.50;;;;;;;;;;5115439;28;20466;-56
2022/03/17 07:24:15;;;;;;;62.10;33.93;;;;;;;;;;5115733;28;20409;-52
2022/03/17 07:26:41;;;;;;;59.90;33.70;;;;;;;;;;5097216;28;20413;-55
2022/03/17 07:29:08;;;;;;;62.97;34.53;;;;;;;;;;5116024;28;20450;-59
2022/03/17 07:31:35;;;;;;;58.90;34.37;;;;;;;;;;5115485;28;20422;-54
2022/03/17 07:34:01;;;;;;;62.87;34.10;;;;;;;;;;5115639;28;20803;-52
2022/03/17 07:36:28;;;;;;;62.20;35.97;;;;;;;;;;5115728;28;20952;-54
2022/03/17 07:38:55;;;;;;;60.73;35.20;;;;;;;;;;5115497;28;20796;-55
2022/03/17 07:41:21;;;;;;;59.00;36.07;;;;;;;;;;5115662;28;20401;-52
2022/03/17 07:43:47;;;;;;;61.80;36.20;;;;;;;;;;5115362;28;20424;-57
2022/03/17 07:46:14;;;;;;;58.60;33.80;;;;;;;;;;5115355;28;20408;-55
2022/03/17 07:48:41;;;;;;;62.77;36.63;;;;;;;;;;5115390;28;20578;-52
2022/03/17 07:51:08;;;;;;;62.23;33.77;;;;;;;;;;5111832;28;20466;-55
2022/03/17 07:53:34;;;;;;;59.40;34.50;;;;;;;;;;5096847;28;20421;-55
2022/03/17 07:56:00;;;;;;;61.03;35.40;;;;;;;;;;5115103;28;20415;-53
2022/03/17 07:58:26;;;;;;;61.07;35.07;;;;;;;;;;5096790;28;20972;-54
2022/03/17 08:00:53;;;;;;;64.93;36.63;;;;;;;;;;5096980;28;20408;-54
2022/03/17 08:03:19;;;;;;;56.63;35.53;;;;;;;;;;5115147;28;20424;-54
2022/03/17 08:05:49;;;;;;;57.10;34.37;;;;;;;;;;5115108;28;20405;-53
2022/03/17 08:08:18;;;;;;;66.00;35.47;;;;;;;;;;5114901;28;20829;-54
2022/03/17 08:10:44;;;;;;;60.13;35.30;;;;;;;;;;5115085;28;20432;-54
2022/03/17 08:13:10;;;;;;;60.93;36.67;;;;;;;;;;5114726;28;20416;-53
2022/03/17 08:15:40;;;;;;;58.20;35.60;;;;;;;;;;5114996;28;20409;-54
2022/03/17 08:18:07;;;;;;;55.33;33.97;;;;;;;;;;5114760;28;20925;-54
2022/03/17 08:20:36;;;;;;;62.80;35.63;;;;;;;;;;5114814;28;20409;-54
2022/03/17 08:23:02;;;;;;;63.03;35.50;;;;;;;;;;5114729;28;20409;-53
2022/03/17 08:25:28;;;;;;;73.87;39.07;;;;;;;;;;5096332;28;20405;-54
2022/03/17 08:27:55;;;;;;;61.37;36.10;;;;;;;;;;5114225;28;20464;-53
2022/03/17 08:30:21;;;;;;;58.07;34.00;;;;;;;;;;5114532;28;20401;-54
2022/03/17 08:32:48;;;;;;;56.43;33.70;;;;;;;;;;5114451;28;20442;-55
2022/03/17 08:35:14;;;;;;;54.60;34.60;;;;;;;;;;5114412;28;20454;-53
2022/03/17 08:37:41;;;;;;;55.73;33.47;;;;;;;;;;5114390;28;20808;-53
2022/03/17 08:40:07;;;;;;;56.77;34.77;;;;;;;;;;5096052;28;20438;-55
2022/03/17 08:42:33;;;;;;;57.20;35.77;;;;;;;;;;5114028;28;20470;-54
2022/03/17 08:44:59;;;;;;;57.10;35.40;;;;;;;;;;5114293;28;20437;-53
2022/03/17 08:50:13;;;;;;;55.73;35.33;;;;;;;;;;5111734;28;20421;-53
2022/03/17 08:52:39;;;;;;;55.50;34.47;;;;;;;;;;5084262;28;20438;-54
2022/03/17 08:55:05;;;;;;;57.00;35.10;;;;;;;;;;5086267;28;20415;-54
2022/03/17 08:57:31;;;;;;;56.03;36.10;;;;;;;;;;5113467;28;20401;-56
2022/03/17 08:59:58;;;;;;;58.50;36.40;;;;;;;;;;5113268;28;20416;-53
2022/03/17 09:02:24;;;;;;;58.03;36.07;;;;;;;;;;5113238;28;20421;-58
2022/03/17 09:04:50;;;;;;;72.63;42.07;;;;;;;;;;5113167;28;20396;-53
2022/03/17 09:07:17;;;;;;;83.33;43.03;;;;;;;;;;5113017;28;20551;-55
2022/03/17 09:09:45;;;;;;;56.97;36.47;;;;;;;;;;5112291;28;20412;-56
2022/03/17 09:12:11;;;;;;;57.83;36.40;;;;;;;;;;5112922;28;20431;-54
2022/03/17 09:14:44;;;;;;;55.47;34.43;;;;;;;;;;5113246;28;20435;-53
2022/03/17 09:17:10;;;;;;;58.03;35.43;;;;;;;;;;5113170;28;20409;-54
2022/03/17 09:19:37;;;;;;;54.93;34.60;;;;;;;;;;5112623;28;21032;-54
2022/03/17 09:22:03;;;;;;;59.27;37.40;;;;;;;;;;5112102;28;20420;-55
2022/03/17 09:24:30;;;;;;;55.50;35.80;;;;;;;;;;5112448;28;20409;-54
2022/03/17 09:26:57;;;;;;;54.13;34.83;;;;;;;;;;5112723;28;20431;-52
2022/03/17 09:29:23;;;;;;;62.60;35.37;;;;;;;;;;5112729;28;20409;-54
2022/03/17 09:31:50;;;;;;;59.10;37.37;;;;;;;;;;5112522;28;20397;-55
2022/03/17 09:34:16;;;;;;;57.17;37.20;;;;;;;;;;5112668;28;20421;-53
2022/03/17 09:36:45;;;;;;;63.60;38.83;;;;;;;;;;5112642;28;20473;-53
2022/03/17 09:41:55;;;;;;;60.73;37.67;;;;;;;;;;5112784;28;20936;-56
2022/03/17 09:44:21;;;;;;;54.57;35.77;;;;;;;;;;5112604;28;20400;-55
2022/03/17 09:46:48;;;;;;;57.67;36.63;;;;;;;;;;5112539;28;20399;-54
2022/03/17 09:49:14;;;;;;;76.50;48.10;;;;;;;;;;5111953;28;20917;-55
2022/03/17 09:51:42;;;;;;;64.40;40.30;;;;;;;;;;5112747;28;20763;-54
2022/03/17 09:54:10;;;;;;;61.53;38.80;;;;;;;;;;5112437;28;20401;-56
2022/03/17 09:56:36;;;;;;;61.47;37.93;;;;;;;;;;5112590;28;20461;-55
2022/03/17 09:59:02;;;;;;;57.27;37.73;;;;;;;;;;5112206;28;20408;-55
2022/03/17 10:01:28;;;;;;;60.37;38.30;;;;;;;;;;5112281;28;20935;-53
2022/03/17 10:04:01;;;;;;;59.70;37.17;;;;;;;;;;5112315;28;20452;-53
2022/03/17 10:06:28;;;;;;;62.17;36.67;;;;;;;;;;5112310;28;20473;-56
2022/03/17 10:08:55;;;;;;;59.67;37.37;;;;;;;;;;5111929;28;20468;-55
2022/03/17 10:11:25;;;;;;;60.03;38.13;;;;;;;;;;5112184;28;20405;-56
2022/03/17 10:13:54;;;;;;;62.50;38.97;;;;;;;;;;5111998;28;20409;-56
2022/03/17 10:16:21;;;;;;;58.47;37.40;;;;;;;;;;5112233;28;20758;-55
2022/03/17 10:18:47;;;;;;;57.67;38.00;;;;;;;;;;5112110;28;20957;-55
2022/03/17 10:21:17;;;;;;;59.23;37.93;;;;;;;;;;5115401;28;20401;-55
2022/03/17 10:23:56;;;;;;;58.63;38.13;;;;;;;;;;5116373;28;20487;-55
2022/03/17 10:26:41;;;;;;;63.37;39.37;;;;;;;;;;5116476;28;20926;-54
2022/03/17 10:29:07;;;;;;;57.37;37.03;;;;;;;;;;5116488;28;20487;-53
2022/03/17 10:31:49;;;;;;;59.90;38.77;;;;;;;;;;5116245;28;20909;-55
2022/03/17 10:34:15;;;;;;;65.00;39.67;;;;;;;;;;5097856;28;20773;-58
2022/03/17 10:36:45;;;;;;;62.27;39.33;;;;;;;;;;5116269;28;20981;-57
2022/03/17 10:39:11;;;;;;;63.20;40.77;;;;;;;;;;5116092;28;20416;-53
2022/03/17 10:41:44;;;;;;;59.73;40.00;;;;;;;;;;5116139;28;20470;-55
2022/03/17 10:44:11;;;;;;;63.67;39.40;;;;;;;;;;5116234;28;20435;-55
2022/03/17 10:46:37;;;;;;;57.70;39.50;;;;;;;;;;5097842;28;20489;-54
2022/03/17 10:49:05;;;;;;;68.30;42.97;;;;;;;;;;5115764;28;20849;-60
2022/03/17 10:51:37;;;;;;;57.57;38.90;;;;;;;;;;5115868;28;20397;-57
2022/03/17 10:54:07;;;;;;;59.13;41.17;;;;;;;;;;5115810;28;20412;-62
2022/03/17 10:56:38;;;;;;;65.13;41.10;;;;;;;;;;5116067;28;20396;-57
2022/03/17 10:59:06;;;;;;;58.83;40.03;;;;;;;;;;5115480;28;20433;-53
2022/03/17 11:01:36;;;;;;;65.87;41.53;;;;;;;;;;5115834;28;20404;-54
2022/03/17 11:04:03;;;;;;;65.50;41.63;;;;;;;;;;5115609;28;20411;-55
2022/03/17 11:06:29;;;;;;;66.20;40.60;;;;;;;;;;5115551;28;20781;-57
2022/03/17 11:08:56;;;;;;;62.80;40.53;;;;;;;;;;5115357;28;20468;-55
2022/03/17 11:11:22;;;;;;;63.23;41.00;;;;;;;;;;5097083;28;20413;-56
2022/03/17 11:13:49;;;;;;;61.67;41.97;;;;;;;;;;5115378;28;20937;-55
2022/03/17 11:16:21;;;;;;;60.37;39.83;;;;;;;;;;5097442;28;20761;-54
2022/03/17 11:18:48;;;;;;;61.17;41.67;;;;;;;;;;5115302;28;20801;-54
2022/03/17 11:21:16;;;;;;;65.27;40.87;;;;;;;;;;5115204;28;20412;-56
2022/03/17 11:24:01;;;;;;;58.17;40.40;;;;;;;;;;5115260;28;20409;-55
2022/03/17 11:26:34;;;;;;;54.07;38.60;;;;;;;;;;5097023;28;20575;-56
2022/03/17 11:29:17;;;;;;;58.60;40.33;;;;;;;;;;5115031;28;21033;-57
2022/03/17 11:31:51;;;;;;;60.63;40.83;;;;;;;;;;5114438;28;20432;-57
2022/03/17 11:34:37;;;;;;;66.70;41.43;;;;;;;;;;5115040;28;20916;-53
2022/03/17 11:37:17;;;;;;;62.03;42.53;;;;;;;;;;5114839;28;20853;-57
2022/03/17 11:39:55;;;;;;;56.60;40.07;;;;;;;;;;5115075;28;20496;-55
2022/03/17 11:42:39;;;;;;;57.20;39.97;;;;;;;;;;5096359;28;20412;-54
2022/03/17 11:45:09;;;;;;;53.87;39.27;;;;;;;;;;5114773;28;20454;-53
2022/03/17 11:47:36;;;;;;;58.73;41.43;;;;;;;;;;5114870;28;20464;-55
2022/03/17 11:50:22;;;;;;;58.53;39.90;;;;;;;;;;5114678;28;20462;-54
2022/03/17 11:52:57;;;;;;;58.13;40.50;;;;;;;;;;5114691;28;20448;-56
2022/03/17 11:55:32;;;;;;;63.50;41.47;;;;;;;;;;5114425;28;20399;-55
2022/03/17 11:58:16;;;;;;;62.10;41.33;;;;;;;;;;5113804;28;20420;-56
2022/03/17 12:00:46;;;;;;;58.73;40.90;;;;;;;;;;5093788;28;20453;-56
2022/03/17 12:03:13;;;;;;;60.00;41.50;;;;;;;;;;5094036;28;20405;-56
2022/03/17 12:05:39;;;;;;;59.47;41.50;;;;;;;;;;5093938;28;20593;-56
2022/03/17 12:08:05;;;;;;;58.50;40.73;;;;;;;;;;5094062;28;20529;-57
2022/03/17 12:10:50;;;;;;;54.43;39.97;;;;;;;;;;5093938;28;20402;-56
2022/03/17 12:13:24;;;;;;;57.57;40.57;;;;;;;;;;5112019;28;20421;-57
2022/03/17 12:15:56;;;;;;;61.93;40.93;;;;;;;;;;5112879;28;20954;-60
2022/03/17 12:18:22;;;;;;;64.30;42.53;;;;;;;;;;5112961;28;20464;-59
2022/03/17 12:20:52;;;;;;;60.60;40.73;;;;;;;;;;5113996;28;20503;-57
2022/03/17 12:23:54;;;;;;;67.00;40.97;;;;;;;;;;5106223;28;20424;-58
2022/03/17 12:26:23;;;;;;;58.40;41.80;;;;;;;;;;5011483;28;20471;-56
2022/03/17 12:28:49;;;;;;;60.27;41.50;;;;;;;;;;5090896;28;20484;-56
2022/03/17 12:31:15;;;;;;;59.87;41.63;;;;;;;;;;5089629;28;20428;-58
2022/03/17 12:33:47;;;;;;;59.43;41.13;;;;;;;;;;5113615;28;20415;-55
2022/03/17 12:36:15;;;;;;;62.90;41.90;;;;;;;;;;5113847;28;20397;-56
2022/03/17 12:38:41;;;;;;;63.23;42.10;;;;;;;;;;5113678;28;20434;-54
2022/03/17 12:41:13;;;;;;;59.40;42.00;;;;;;;;;;5113742;28;20499;-56
2022/03/17 12:43:40;;;;;;;60.00;42.63;;;;;;;;;;5112700;28;20402;-56
2022/03/17 12:46:06;;;;;;;60.10;41.40;;;;;;;;;;5113605;28;20474;-54
2022/03/17 12:48:32;;;;;;;62.23;42.30;;;;;;;;;;5113553;28;20468;-58
2022/03/17 12:51:11;;;;;;;68.87;43.77;;;;;;;;;;5113344;28;20504;-54
2022/03/17 12:53:39;;;;;;;65.13;40.17;;;;;;;;;;5113563;28;20404;-60
2022/03/17 12:56:05;;;;;;;61.70;41.53;;;;;;;;;;5113504;28;20504;-61
2022/03/17 12:58:39;;;;;;;57.53;39.10;;;;;;;;;;5112960;28;20516;-57
2022/03/17 13:01:05;;;;;;;57.63;38.70;;;;;;;;;;5113349;28;20512;-54
2022/03/17 13:03:31;;;;;;;59.53;40.37;;;;;;;;;;5112806;28;20811;-53
2022/03/17 13:08:45;;;;;;;57.30;40.77;;;;;;;;;;5113215;28;20567;-58
2022/03/17 13:16:41;;;;;;;62.37;41.17;;;;;;;;;;5113153;28;20417;-58
2022/03/17 13:19:08;;;;;;;63.63;40.20;;;;;;;;;;5112722;28;20463;-54
2022/03/17 13:21:35;;;;;;;63.30;41.10;;;;;;;;;;5112946;28;20484;-54
2022/03/17 13:24:12;;;;;;;62.43;40.43;;;;;;;;;;5112791;28;20423;-55
2022/03/17 13:26:39;;;;;;;67.20;42.47;;;;;;;;;;5113087;28;20400;-55
2022/03/17 13:29:05;;;;;;;59.40;39.87;;;;;;;;;;5112847;28;20820;-55
2022/03/17 13:31:35;;;;;;;62.67;41.67;;;;;;;;;;5112746;28;20408;-59
2022/03/17 13:34:01;;;;;;;70.53;42.50;;;;;;;;;;5112849;28;20413;-54
2022/03/17 13:36:45;;;;;;;61.10;40.03;;;;;;;;;;5112466;28;20496;-51
2022/03/17 13:39:11;;;;;;;63.97;41.37;;;;;;;;;;5112706;28;20404;-54
2022/03/17 13:41:37;;;;;;;61.53;39.80;;;;;;;;;;5112560;28;20404;-56
2022/03/17 13:44:04;;;;;;;61.30;39.63;;;;;;;;;;5112614;28;20405;-52
2022/03/17 13:46:40;;;;;;;57.03;37.90;;;;;;;;;;5112380;28;20408;-51
2022/03/17 13:49:14;;;;;;;55.53;37.70;;;;;;;;;;5112250;28;20540;-55
2022/03/17 13:51:40;;;;;;;60.67;38.60;;;;;;;;;;5112412;28;20901;-57
2022/03/17 13:54:06;;;;;;;54.93;36.97;;;;;;;;;;5112415;28;20417;-52
2022/03/17 13:56:35;;;;;;;58.00;38.00;;;;;;;;;;5112458;28;20493;-54
2022/03/17 13:59:01;;;;;;;53.93;37.40;;;;;;;;;;5112011;28;20401;-54
2022/03/17 14:01:27;;;;;;;55.00;35.37;;;;;;;;;;5112149;28;20879;-55
2022/03/17 14:04:00;;;;;;;62.73;34.77;;;;;;;;;;5112048;28;20411;-53
2022/03/17 14:06:30;;;;;;;55.87;35.53;;;;;;;;;;5112303;28;20411;-53
2022/03/17 14:09:16;;;;;;;55.57;36.33;;;;;;;;;;5111761;28;20472;-51
2022/03/17 14:11:43;;;;;;;50.20;33.43;;;;;;;;;;5112343;28;20412;-54
2022/03/17 14:14:10;;;;;;;51.63;34.17;;;;;;;;;;5112143;28;20409;-55
2022/03/17 14:16:37;;;;;;;63.53;34.77;;;;;;;;;;5094052;28;20931;-57
2022/03/17 14:19:04;;;;;;;55.10;33.57;;;;;;;;;;5111585;28;20463;-54
2022/03/17 14:21:31;;;;;;;54.77;34.57;;;;;;;;;;5111951;28;20416;-54
2022/03/17 14:24:12;;;;;;;50.33;33.57;;;;;;;;;;5111927;28;20405;-53
2022/03/17 14:26:39;;;;;;;51.23;32.57;;;;;;;;;;5112079;28;20408;-53
2022/03/17 14:29:10;;;;;;;54.23;35.73;;;;;;;;;;5093647;28;20468;-56
2022/03/17 14:31:37;;;;;;;54.73;34.73;;;;;;;;;;5111924;28;20416;-53
2022/03/17 14:34:04;;;;;;;54.90;35.43;;;;;;;;;;5111737;28;20461;-54
2022/03/17 14:36:31;;;;;;;56.23;33.07;;;;;;;;;;5111672;28;20474;-52
2022/03/17 14:38:57;;;;;;;55.10;34.80;;;;;;;;;;5111581;28;20488;-54
2022/03/17 14:41:24;;;;;;;48.27;32.47;;;;;;;;;;5111756;28;20423;-58
2022/03/17 14:43:51;;;;;;;60.73;33.20;;;;;;;;;;5111554;28;20415;-63
2022/03/17 14:46:19;;;;;;;52.43;33.43;;;;;;;;;;5111722;28;20416;-55